sensor_id;sensor_type;location;lat;lon;timestamp;pressure;altitude;pressure_sealevel;temperature;humidity
24486;BME280;13449;49.374;8.584;2023-07-20T00:01:29;100224.75;;;19.68;53.32
24486;BME280;13449;49.374;8.584;2023-07-20T00:03:56;100231.66;;;19.62;53.77
24486;BME280;13449;49.374;8.584;2023-07-20T00:06:24;100233.88;;;19.59;53.64
24486;BME280;13449;49.374;8.584;2023-07-20T00:08:51;100227.88;;;19.57;53.71
24486;BME280;13449;49.374;8.584;2023-07-20T00:11:18;100228.19;;;19.54;53.29
24486;BME280;13449;49.374;8.584;2023-07-20T00:13:45;100232.41;;;19.48;54.66
24486;BME280;13449;49.374;8.584;2023-07-20T00:16:11;100240.34;;;19.41;54.61
24486;BME280;13449;49.374;8.584;2023-07-20T00:18:38;100235.31;;;19.38;53.86
24486;BME280;13449;49.374;8.584;2023-07-20T00:21:06;100239.00;;;19.37;54.14
24486;BME280;13449;49.374;8.584;2023-07-20T00:23:35;100242.13;;;19.26;54.94
24486;BME280;13449;49.374;8.584;2023-07-20T00:26:02;100240.81;;;19.22;55.13
24486;BME280;13449;49.374;8.584;2023-07-20T00:28:28;100248.88;;;19.14;56.23
24486;BME280;13449;49.374;8.584;2023-07-20T00:30:55;100246.59;;;19.11;55.02
24486;BME280;13449;49.374;8.584;2023-07-20T00:33:28;100249.94;;;19.05;56.09
24486;BME280;13449;49.374;8.584;2023-07-20T00:35:54;100250.00;;;18.97;56.08
24486;BME280;13449;49.374;8.584;2023-07-20T00:38:21;100247.84;;;18.92;57.04
24486;BME280;13449;49.374;8.584;2023-07-20T00:40:47;100252.44;;;18.83;56.87
24486;BME280;13449;49.374;8.584;2023-07-20T00:43:17;100252.47;;;18.75;56.71
24486;BME280;13449;49.374;8.584;2023-07-20T00:45:44;100252.16;;;18.70;57.16
24486;BME280;13449;49.374;8.584;2023-07-20T00:48:11;100249.69;;;18.69;56.89
24486;BME280;13449;49.374;8.584;2023-07-20T00:50:39;100255.84;;;18.69;56.72
24486;BME280;13449;49.374;8.584;2023-07-20T00:53:06;100256.19;;;18.66;57.57
24486;BME280;13449;49.374;8.584;2023-07-20T00:55:33;100255.84;;;18.61;56.85
24486;BME280;13449;49.374;8.584;2023-07-20T00:58:01;100260.41;;;18.52;57.94
24486;BME280;13449;49.374;8.584;2023-07-20T01:00:27;100260.25;;;18.46;57.78
24486;BME280;13449;49.374;8.584;2023-07-20T01:02:54;100258.56;;;18.45;57.65
24486;BME280;13449;49.374;8.584;2023-07-20T01:05:21;100267.94;;;18.41;58.26
24486;BME280;13449;49.374;8.584;2023-07-20T01:08:00;100264.97;;;18.36;58.21
24486;BME280;13449;49.374;8.584;2023-07-20T01:10:40;100262.66;;;18.33;58.18
24486;BME280;13449;49.374;8.584;2023-07-20T01:13:10;100275.47;;;18.29;58.70
24486;BME280;13449;49.374;8.584;2023-07-20T01:15:37;100261.69;;;18.17;59.24
24486;BME280;13449;49.374;8.584;2023-07-20T01:18:04;100270.03;;;18.14;60.34
24486;BME280;13449;49.374;8.584;2023-07-20T01:20:34;100266.69;;;18.12;58.93
24486;BME280;13449;49.374;8.584;2023-07-20T01:23:25;100262.41;;;18.03;59.20
24486;BME280;13449;49.374;8.584;2023-07-20T01:26:08;100267.09;;;18.01;59.59
24486;BME280;13449;49.374;8.584;2023-07-20T01:31:24;100269.09;;;17.99;59.65
24486;BME280;13449;49.374;8.584;2023-07-20T01:33:56;100263.25;;;17.95;59.84
24486;BME280;13449;49.374;8.584;2023-07-20T01:36:24;100268.75;;;17.94;60.29
24486;BME280;13449;49.374;8.584;2023-07-20T01:38:53;100277.09;;;17.83;60.59
24486;BME280;13449;49.374;8.584;2023-07-20T01:41:20;100277.44;;;17.72;61.50
24486;BME280;13449;49.374;8.584;2023-07-20T01:43:47;100273.44;;;17.59;61.80
24486;BME280;13449;49.374;8.584;2023-07-20T01:46:13;100273.44;;;17.59;61.89
24486;BME280;13449;49.374;8.584;2023-07-20T01:48:43;100272.44;;;17.52;61.51
24486;BME280;13449;49.374;8.584;2023-07-20T01:51:09;100270.94;;;17.42;62.59
24486;BME280;13449;49.374;8.584;2023-07-20T01:53:36;100279.09;;;17.40;62.74
24486;BME280;13449;49.374;8.584;2023-07-20T01:56:05;100272.09;;;17.39;61.77
24486;BME280;13449;49.374;8.584;2023-07-20T01:58:34;100271.25;;;17.30;61.79
24486;BME280;13449;49.374;8.584;2023-07-20T02:01:03;100279.56;;;17.27;62.71
24486;BME280;13449;49.374;8.584;2023-07-20T02:03:32;100280.72;;;17.17;63.87
24486;BME280;13449;49.374;8.584;2023-07-20T02:05:58;100280.22;;;17.13;64.04
24486;BME280;13449;49.374;8.584;2023-07-20T02:08:25;100276.72;;;17.04;63.88
24486;BME280;13449;49.374;8.584;2023-07-20T02:10:51;100285.69;;;16.95;64.43
24486;BME280;13449;49.374;8.584;2023-07-20T02:13:18;100281.19;;;16.96;64.57
24486;BME280;13449;49.374;8.584;2023-07-20T02:15:47;100283.19;;;16.94;64.10
24486;BME280;13449;49.374;8.584;2023-07-20T02:18:15;100276.66;;;16.88;64.31
24486;BME280;13449;49.374;8.584;2023-07-20T02:20:42;100286.81;;;16.85;64.82
24486;BME280;13449;49.374;8.584;2023-07-20T02:23:09;100288.97;;;16.81;64.60
24486;BME280;13449;49.374;8.584;2023-07-20T02:25:36;100285.31;;;16.82;63.78
24486;BME280;13449;49.374;8.584;2023-07-20T02:28:04;100285.31;;;16.82;64.33
24486;BME280;13449;49.374;8.584;2023-07-20T02:30:33;100297.69;;;16.65;66.10
24486;BME280;13449;49.374;8.584;2023-07-20T02:33:03;100290.41;;;16.67;65.46
24486;BME280;13449;49.374;8.584;2023-07-20T02:35:32;100289.22;;;16.62;64.72
24486;BME280;13449;49.374;8.584;2023-07-20T02:37:59;100296.31;;;16.53;65.98
24486;BME280;13449;49.374;8.584;2023-07-20T02:40:25;100299.44;;;16.48;66.13
24486;BME280;13449;49.374;8.584;2023-07-20T02:42:52;100300.09;;;16.42;66.73
24486;BME280;13449;49.374;8.584;2023-07-20T02:45:20;100294.09;;;16.40;66.04
24486;BME280;13449;49.374;8.584;2023-07-20T02:47:50;100302.53;;;16.28;66.65
24486;BME280;13449;49.374;8.584;2023-07-20T02:50:16;100303.66;;;16.25;67.09
24486;BME280;13449;49.374;8.584;2023-07-20T02:52:43;100301.47;;;16.21;66.87
24486;BME280;13449;49.374;8.584;2023-07-20T02:55:09;100296.31;;;16.19;66.07
24486;BME280;13449;49.374;8.584;2023-07-20T02:57:36;100310.59;;;16.18;67.00
24486;BME280;13449;49.374;8.584;2023-07-20T03:00:03;100306.28;;;16.17;66.61
24486;BME280;13449;49.374;8.584;2023-07-20T03:02:32;100309.91;;;16.16;67.35
24486;BME280;13449;49.374;8.584;2023-07-20T03:04:58;100306.59;;;16.14;66.79
24486;BME280;13449;49.374;8.584;2023-07-20T03:07:28;100302.88;;;16.07;67.93
24486;BME280;13449;49.374;8.584;2023-07-20T03:09:58;100292.63;;;16.12;66.73
24486;BME280;13449;49.374;8.584;2023-07-20T03:12:28;100301.28;;;16.14;66.70
24486;BME280;13449;49.374;8.584;2023-07-20T03:14:55;100308.50;;;16.04;68.44
24486;BME280;13449;49.374;8.584;2023-07-20T03:17:23;100297.28;;;16.10;67.05
24486;BME280;13449;49.374;8.584;2023-07-20T03:19:50;100304.53;;;16.08;67.43
24486;BME280;13449;49.374;8.584;2023-07-20T03:22:16;100300.75;;;16.10;68.40
24486;BME280;13449;49.374;8.584;2023-07-20T03:24:43;100303.56;;;16.09;67.76
24486;BME280;13449;49.374;8.584;2023-07-20T03:27:10;100306.38;;;16.07;67.38
24486;BME280;13449;49.374;8.584;2023-07-20T03:29:36;100314.81;;;16.03;69.05
24486;BME280;13449;49.374;8.584;2023-07-20T03:32:06;100309.25;;;16.14;67.39
24486;BME280;13449;49.374;8.584;2023-07-20T03:34:33;100321.06;;;16.20;67.29
24486;BME280;13449;49.374;8.584;2023-07-20T03:36:59;100328.34;;;15.92;67.89
24486;BME280;13449;49.374;8.584;2023-07-20T03:39:27;100333.25;;;15.78;69.19
24486;BME280;13449;49.374;8.584;2023-07-20T03:41:57;100333.84;;;15.72;69.00
24486;BME280;13449;49.374;8.584;2023-07-20T03:44:24;100338.63;;;15.69;68.65
24486;BME280;13449;49.374;8.584;2023-07-20T03:46:53;100329.16;;;15.66;68.11
24486;BME280;13449;49.374;8.584;2023-07-20T03:49:20;100337.00;;;15.58;69.68
24486;BME280;13449;49.374;8.584;2023-07-20T03:51:46;100341.81;;;15.54;69.81
24486;BME280;13449;49.374;8.584;2023-07-20T03:54:13;100341.75;;;15.46;70.12
24486;BME280;13449;49.374;8.584;2023-07-20T03:56:42;100353.78;;;15.41;70.63
24486;BME280;13449;49.374;8.584;2023-07-20T03:59:11;100350.38;;;15.31;70.85
24486;BME280;13449;49.374;8.584;2023-07-20T04:01:38;100348.41;;;15.33;69.94
24486;BME280;13449;49.374;8.584;2023-07-20T04:04:25;100355.69;;;15.31;70.66
24486;BME280;13449;49.374;8.584;2023-07-20T04:06:52;100358.78;;;15.26;71.90
24486;BME280;13449;49.374;8.584;2023-07-20T04:09:20;100358.47;;;15.29;71.95
24486;BME280;13449;49.374;8.584;2023-07-20T04:11:47;100366.56;;;15.27;71.61
24486;BME280;13449;49.374;8.584;2023-07-20T04:14:13;100365.44;;;15.30;71.66
24486;BME280;13449;49.374;8.584;2023-07-20T04:16:40;100368.97;;;15.31;72.08
24486;BME280;13449;49.374;8.584;2023-07-20T04:19:07;100361.84;;;15.31;71.54
24486;BME280;13449;49.374;8.584;2023-07-20T04:21:40;100363.34;;;15.34;72.12
24486;BME280;13449;49.374;8.584;2023-07-20T04:24:07;100368.34;;;15.37;71.97
24486;BME280;13449;49.374;8.584;2023-07-20T04:26:36;100364.72;;;15.38;72.29
24486;BME280;13449;49.374;8.584;2023-07-20T04:29:03;100372.06;;;15.44;72.12
24486;BME280;13449;49.374;8.584;2023-07-20T04:31:30;100374.81;;;15.52;72.04
24486;BME280;13449;49.374;8.584;2023-07-20T04:33:59;100375.88;;;15.59;72.34
24486;BME280;13449;49.374;8.584;2023-07-20T04:36:26;100380.97;;;15.70;72.27
24486;BME280;13449;49.374;8.584;2023-07-20T04:38:52;100374.88;;;15.78;72.28
24486;BME280;13449;49.374;8.584;2023-07-20T04:41:19;100364.50;;;15.84;71.35
24486;BME280;13449;49.374;8.584;2023-07-20T04:43:47;100377.81;;;15.93;71.28
24486;BME280;13449;49.374;8.584;2023-07-20T04:46:13;100371.09;;;15.98;71.32
24486;BME280;13449;49.374;8.584;2023-07-20T04:48:42;100379.09;;;16.06;72.09
24486;BME280;13449;49.374;8.584;2023-07-20T04:51:09;100368.03;;;16.11;71.30
24486;BME280;13449;49.374;8.584;2023-07-20T04:53:36;100367.41;;;16.17;70.70
24486;BME280;13449;49.374;8.584;2023-07-20T04:56:03;100366.59;;;16.25;71.54
24486;BME280;13449;49.374;8.584;2023-07-20T04:58:30;100357.84;;;16.32;70.03
24486;BME280;13449;49.374;8.584;2023-07-20T05:00:56;100350.22;;;16.37;69.72
24486;BME280;13449;49.374;8.584;2023-07-20T05:03:23;100352.56;;;16.40;70.76
24486;BME280;13449;49.374;8.584;2023-07-20T05:05:50;100356.59;;;16.44;71.04
24486;BME280;13449;49.374;8.584;2023-07-20T05:08:17;100352.13;;;16.45;70.42
24486;BME280;13449;49.374;8.584;2023-07-20T05:10:43;100353.28;;;16.42;70.33
24486;BME280;13449;49.374;8.584;2023-07-20T05:13:10;100352.72;;;16.39;70.11
24486;BME280;13449;49.374;8.584;2023-07-20T05:15:36;100359.19;;;16.36;70.45
24486;BME280;13449;49.374;8.584;2023-07-20T05:18:03;100359.53;;;16.33;70.54
24486;BME280;13449;49.374;8.584;2023-07-20T05:20:30;100361.38;;;16.41;69.95
24486;BME280;13449;49.374;8.584;2023-07-20T05:22:58;100364.59;;;16.53;69.97
24486;BME280;13449;49.374;8.584;2023-07-20T05:25:25;100356.69;;;16.61;69.65
24486;BME280;13449;49.374;8.584;2023-07-20T05:27:54;100362.44;;;16.74;70.27
24486;BME280;13449;49.374;8.584;2023-07-20T05:30:21;100355.63;;;16.80;69.41
24486;BME280;13449;49.374;8.584;2023-07-20T05:32:48;100361.78;;;16.80;70.00
24486;BME280;13449;49.374;8.584;2023-07-20T05:35:18;100359.69;;;16.92;69.18
24486;BME280;13449;49.374;8.584;2023-07-20T05:37:46;100359.06;;;17.14;69.50
24486;BME280;13449;49.374;8.584;2023-07-20T05:40:14;100365.25;;;17.31;68.78
24486;BME280;13449;49.374;8.584;2023-07-20T05:42:46;100360.78;;;17.48;68.01
24486;BME280;13449;49.374;8.584;2023-07-20T05:45:12;100352.50;;;17.59;66.97
24486;BME280;13449;49.374;8.584;2023-07-20T05:47:39;100349.69;;;17.52;66.17
24486;BME280;13449;49.374;8.584;2023-07-20T05:50:06;100355.31;;;17.57;66.91
24486;BME280;13449;49.374;8.584;2023-07-20T05:52:35;100362.00;;;17.53;66.81
24486;BME280;13449;49.374;8.584;2023-07-20T05:55:02;100362.66;;;17.55;67.41
24486;BME280;13449;49.374;8.584;2023-07-20T05:57:29;100372.81;;;17.52;70.15
24486;BME280;13449;49.374;8.584;2023-07-20T05:59:56;100369.28;;;17.51;69.10
24486;BME280;13449;49.374;8.584;2023-07-20T06:02:22;100370.63;;;17.47;68.43
24486;BME280;13449;49.374;8.584;2023-07-20T06:04:51;100363.63;;;17.46;68.24
24486;BME280;13449;49.374;8.584;2023-07-20T06:07:18;100363.28;;;17.49;67.95
24486;BME280;13449;49.374;8.584;2023-07-20T06:09:44;100363.66;;;17.54;68.75
24486;BME280;13449;49.374;8.584;2023-07-20T06:12:11;100363.31;;;17.65;68.04
24486;BME280;13449;49.374;8.584;2023-07-20T06:14:37;100368.38;;;17.69;67.80
24486;BME280;13449;49.374;8.584;2023-07-20T06:17:08;100374.69;;;17.76;69.36
24486;BME280;13449;49.374;8.584;2023-07-20T06:19:38;100382.34;;;17.87;68.89
24486;BME280;13449;49.374;8.584;2023-07-20T06:22:04;100373.69;;;17.93;66.84
24486;BME280;13449;49.374;8.584;2023-07-20T06:24:31;100374.53;;;18.02;68.06
24486;BME280;13449;49.374;8.584;2023-07-20T06:27:00;100363.66;;;18.11;67.36
24486;BME280;13449;49.374;8.584;2023-07-20T06:29:26;100367.31;;;18.26;66.53
24486;BME280;13449;49.374;8.584;2023-07-20T06:31:53;100361.63;;;18.38;66.30
24486;BME280;13449;49.374;8.584;2023-07-20T06:34:20;100365.78;;;18.48;67.46
24486;BME280;13449;49.374;8.584;2023-07-20T06:36:50;100363.72;;;18.59;66.33
24486;BME280;13449;49.374;8.584;2023-07-20T06:39:16;100362.09;;;18.66;65.37
24486;BME280;13449;49.374;8.584;2023-07-20T06:41:45;100372.53;;;18.75;67.01
24486;BME280;13449;49.374;8.584;2023-07-20T06:44:12;100372.16;;;18.95;67.46
24486;BME280;13449;49.374;8.584;2023-07-20T06:46:38;100360.88;;;19.07;65.24
24486;BME280;13449;49.374;8.584;2023-07-20T06:49:07;100345.84;;;19.37;62.70
24486;BME280;13449;49.374;8.584;2023-07-20T06:51:37;100349.16;;;19.39;64.38
24486;BME280;13449;49.374;8.584;2023-07-20T06:54:03;100363.41;;;19.63;64.87
24486;BME280;13449;49.374;8.584;2023-07-20T06:56:31;100340.53;;;19.83;61.62
24486;BME280;13449;49.374;8.584;2023-07-20T06:58:59;100341.34;;;20.07;60.66
24486;BME280;13449;49.374;8.584;2023-07-20T07:01:27;100324.47;;;20.06;57.08
24486;BME280;13449;49.374;8.584;2023-07-20T07:03:54;100340.13;;;20.09;60.00
24486;BME280;13449;49.374;8.584;2023-07-20T07:06:24;100351.38;;;20.34;62.62
24486;BME280;13449;49.374;8.584;2023-07-20T07:08:52;100338.03;;;20.63;60.70
24486;BME280;13449;49.374;8.584;2023-07-20T07:11:24;100323.09;;;20.84;55.84
24486;BME280;13449;49.374;8.584;2023-07-20T07:13:53;100313.59;;;20.67;54.93
24486;BME280;13449;49.374;8.584;2023-07-20T07:16:23;100322.88;;;21.00;57.27
24486;BME280;13449;49.374;8.584;2023-07-20T07:18:50;100306.19;;;21.19;53.87
24486;BME280;13449;49.374;8.584;2023-07-20T07:21:17;100323.31;;;21.40;57.21
24486;BME280;13449;49.374;8.584;2023-07-20T07:23:46;100313.13;;;21.50;53.36
24486;BME280;13449;49.374;8.584;2023-07-20T07:26:13;100303.91;;;21.59;52.83
24486;BME280;13449;49.374;8.584;2023-07-20T07:28:42;100322.50;;;21.89;55.45
24486;BME280;13449;49.374;8.584;2023-07-20T07:31:09;100312.69;;;21.96;55.12
24486;BME280;13449;49.374;8.584;2023-07-20T07:33:35;100315.72;;;22.14;54.34
24486;BME280;13449;49.374;8.584;2023-07-20T07:36:05;100295.72;;;22.17;51.57
24486;BME280;13449;49.374;8.584;2023-07-20T07:38:31;100307.03;;;22.47;53.63
24486;BME280;13449;49.374;8.584;2023-07-20T07:41:18;100306.34;;;22.79;53.45
24486;BME280;13449;49.374;8.584;2023-07-20T07:43:44;100280.88;;;22.62;48.54
24486;BME280;13449;49.374;8.584;2023-07-20T07:46:14;100290.50;;;22.84;51.24
24486;BME280;13449;49.374;8.584;2023-07-20T07:48:40;100290.38;;;22.58;48.54
24486;BME280;13449;49.374;8.584;2023-07-20T07:51:10;100292.28;;;22.29;49.89
24486;BME280;13449;49.374;8.584;2023-07-20T07:53:36;100298.09;;;22.05;51.16
24486;BME280;13449;49.374;8.584;2023-07-20T07:56:06;100302.06;;;21.88;52.12
24486;BME280;13449;49.374;8.584;2023-07-20T07:58:33;100312.00;;;22.15;51.58
24486;BME280;13449;49.374;8.584;2023-07-20T08:00:59;100304.50;;;22.38;51.09
24486;BME280;13449;49.374;8.584;2023-07-20T08:03:29;100297.66;;;22.01;48.85
24486;BME280;13449;49.374;8.584;2023-07-20T08:05:56;100309.56;;;21.71;51.81
24486;BME280;13449;49.374;8.584;2023-07-20T08:08:22;100318.91;;;21.53;54.55
24486;BME280;13449;49.374;8.584;2023-07-20T08:10:53;100296.47;;;21.82;50.78
24486;BME280;13449;49.374;8.584;2023-07-20T08:13:20;100299.09;;;22.32;51.68
24486;BME280;13449;49.374;8.584;2023-07-20T08:15:50;100308.56;;;22.69;52.19
24486;BME280;13449;49.374;8.584;2023-07-20T08:18:25;100296.31;;;22.94;50.34
24486;BME280;13449;49.374;8.584;2023-07-20T08:20:51;100289.16;;;23.28;49.87
24486;BME280;13449;49.374;8.584;2023-07-20T08:23:19;100290.66;;;23.64;49.25
24486;BME280;13449;49.374;8.584;2023-07-20T08:25:46;100289.00;;;23.89;48.65
24486;BME280;13449;49.374;8.584;2023-07-20T08:28:14;100291.50;;;23.77;49.32
24486;BME280;13449;49.374;8.584;2023-07-20T08:30:46;100283.56;;;23.16;47.22
24486;BME280;13449;49.374;8.584;2023-07-20T08:33:13;100301.75;;;23.14;50.19
24486;BME280;13449;49.374;8.584;2023-07-20T08:35:40;100287.13;;;22.76;47.41
24486;BME280;13449;49.374;8.584;2023-07-20T08:38:07;100296.88;;;22.83;49.89
24486;BME280;13449;49.374;8.584;2023-07-20T08:40:45;100300.97;;;22.73;50.28
24486;BME280;13449;49.374;8.584;2023-07-20T08:43:13;100299.59;;;22.49;49.08
24486;BME280;13449;49.374;8.584;2023-07-20T08:45:40;100285.50;;;22.81;46.81
24486;BME280;13449;49.374;8.584;2023-07-20T08:48:07;100285.91;;;22.78;46.74
24486;BME280;13449;49.374;8.584;2023-07-20T08:50:35;100285.53;;;22.88;45.36
24486;BME280;13449;49.374;8.584;2023-07-20T08:53:02;100297.47;;;23.40;49.58
24486;BME280;13449;49.374;8.584;2023-07-20T08:55:29;100296.88;;;23.71;49.27
24486;BME280;13449;49.374;8.584;2023-07-20T08:58:00;100279.47;;;23.93;44.04
24486;BME280;13449;49.374;8.584;2023-07-20T09:00:34;100285.28;;;23.77;46.52
24486;BME280;13449;49.374;8.584;2023-07-20T09:03:02;100284.41;;;23.30;46.34
24486;BME280;13449;49.374;8.584;2023-07-20T09:05:29;100286.59;;;22.93;47.96
24486;BME280;13449;49.374;8.584;2023-07-20T09:07:58;100283.09;;;22.99;46.42
24486;BME280;13449;49.374;8.584;2023-07-20T09:10:25;100274.88;;;23.08;45.46
24486;BME280;13449;49.374;8.584;2023-07-20T09:12:51;100269.28;;;23.16;44.29
24486;BME280;13449;49.374;8.584;2023-07-20T09:15:19;100275.53;;;23.36;45.90
24486;BME280;13449;49.374;8.584;2023-07-20T09:17:47;100274.75;;;23.62;45.47
24486;BME280;13449;49.374;8.584;2023-07-20T09:20:18;100273.91;;;23.81;46.57
24486;BME280;13449;49.374;8.584;2023-07-20T09:22:50;100269.34;;;23.82;46.01
24486;BME280;13449;49.374;8.584;2023-07-20T09:25:19;100277.81;;;23.92;47.39
24486;BME280;13449;49.374;8.584;2023-07-20T09:27:49;100256.31;;;23.39;44.08
24486;BME280;13449;49.374;8.584;2023-07-20T09:30:18;100273.66;;;23.30;46.58
24486;BME280;13449;49.374;8.584;2023-07-20T09:32:46;100271.53;;;22.92;46.68
24486;BME280;13449;49.374;8.584;2023-07-20T09:35:20;100276.47;;;22.95;47.55
24486;BME280;13449;49.374;8.584;2023-07-20T09:37:59;100277.19;;;23.37;46.32
24486;BME280;13449;49.374;8.584;2023-07-20T09:40:28;100273.28;;;23.93;45.88
24486;BME280;13449;49.374;8.584;2023-07-20T09:43:01;100256.09;;;24.00;41.68
24486;BME280;13449;49.374;8.584;2023-07-20T09:45:33;100256.13;;;23.67;43.08
24486;BME280;13449;49.374;8.584;2023-07-20T09:48:06;100261.69;;;23.39;42.75
24486;BME280;13449;49.374;8.584;2023-07-20T09:50:49;100272.63;;;23.31;44.84
24486;BME280;13449;49.374;8.584;2023-07-20T09:53:20;100275.31;;;23.44;45.54
24486;BME280;13449;49.374;8.584;2023-07-20T09:55:49;100273.25;;;23.40;45.85
24486;BME280;13449;49.374;8.584;2023-07-20T09:58:17;100264.53;;;23.18;44.60
24486;BME280;13449;49.374;8.584;2023-07-20T10:00:45;100259.53;;;23.01;44.07
24486;BME280;13449;49.374;8.584;2023-07-20T10:03:20;100258.78;;;23.21;45.17
24486;BME280;13449;49.374;8.584;2023-07-20T10:05:52;100253.22;;;23.55;45.08
24486;BME280;13449;49.374;8.584;2023-07-20T10:08:24;100251.16;;;23.57;43.07
24486;BME280;13449;49.374;8.584;2023-07-20T10:10:54;100254.66;;;23.84;45.04
24486;BME280;13449;49.374;8.584;2023-07-20T10:13:29;100243.25;;;24.02;42.99
24486;BME280;13449;49.374;8.584;2023-07-20T10:16:03;100247.94;;;24.40;45.62
24486;BME280;13449;49.374;8.584;2023-07-20T10:19:03;100250.25;;;24.81;45.48
24486;BME280;13449;49.374;8.584;2023-07-20T10:21:51;100234.06;;;24.81;41.99
24486;BME280;13449;49.374;8.584;2023-07-20T10:24:24;100228.25;;;24.84;41.19
24486;BME280;13449;49.374;8.584;2023-07-20T10:26:52;100225.47;;;24.59;40.72
24486;BME280;13449;49.374;8.584;2023-07-20T10:29:24;100232.88;;;24.70;43.83
24486;BME280;13449;49.374;8.584;2023-07-20T10:31:51;100211.28;;;24.26;39.84
24486;BME280;13449;49.374;8.584;2023-07-20T10:34:23;100221.06;;;24.13;43.09
24486;BME280;13449;49.374;8.584;2023-07-20T10:36:53;100219.50;;;24.51;42.59
24486;BME280;13449;49.374;8.584;2023-07-20T10:39:26;100206.38;;;24.67;40.20
24486;BME280;13449;49.374;8.584;2023-07-20T10:44:29;100223.69;;;25.48;43.13
24486;BME280;13449;49.374;8.584;2023-07-20T10:47:08;100201.97;;;25.61;40.53
24486;BME280;13449;49.374;8.584;2023-07-20T10:50:00;100197.03;;;25.58;38.08
24486;BME280;13449;49.374;8.584;2023-07-20T10:52:39;100199.41;;;25.48;39.57
24486;BME280;13449;49.374;8.584;2023-07-20T10:55:16;100194.72;;;25.36;39.80
24486;BME280;13449;49.374;8.584;2023-07-20T10:57:42;100181.28;;;25.05;39.03
24486;BME280;13449;49.374;8.584;2023-07-20T11:00:13;100192.84;;;24.81;41.63
24486;BME280;13449;49.374;8.584;2023-07-20T11:02:49;100197.72;;;24.59;43.17
24486;BME280;13449;49.374;8.584;2023-07-20T11:05:39;100193.69;;;24.30;42.43
24486;BME280;13449;49.374;8.584;2023-07-20T11:08:12;100181.50;;;24.34;39.58
24486;BME280;13449;49.374;8.584;2023-07-20T11:10:39;100186.91;;;24.65;41.40
24486;BME280;13449;49.374;8.584;2023-07-20T11:13:22;100178.25;;;24.95;39.74
24486;BME280;13449;49.374;8.584;2023-07-20T11:18:25;100183.63;;;25.26;40.69
24486;BME280;13449;49.374;8.584;2023-07-20T11:20:52;100193.84;;;25.18;40.64
24486;BME280;13449;49.374;8.584;2023-07-20T11:23:19;100184.31;;;25.15;41.28
24486;BME280;13449;49.374;8.584;2023-07-20T11:25:49;100166.78;;;24.99;38.72
24486;BME280;13449;49.374;8.584;2023-07-20T11:28:16;100182.00;;;25.19;41.33
24486;BME280;13449;49.374;8.584;2023-07-20T11:30:42;100183.44;;;24.90;41.09
24486;BME280;13449;49.374;8.584;2023-07-20T11:33:09;100172.66;;;24.90;40.15
24486;BME280;13449;49.374;8.584;2023-07-20T11:35:45;100168.28;;;25.27;39.79
24486;BME280;13449;49.374;8.584;2023-07-20T11:38:17;100158.81;;;25.43;38.95
24486;BME280;13449;49.374;8.584;2023-07-20T11:40:46;100159.31;;;25.51;37.27
24486;BME280;13449;49.374;8.584;2023-07-20T11:43:13;100162.09;;;25.45;39.95
24486;BME280;13449;49.374;8.584;2023-07-20T11:45:43;100166.50;;;26.01;40.44
24486;BME280;13449;49.374;8.584;2023-07-20T11:48:17;100164.00;;;26.17;39.97
24486;BME280;13449;49.374;8.584;2023-07-20T11:50:44;100150.69;;;26.22;38.08
24486;BME280;13449;49.374;8.584;2023-07-20T11:53:11;100138.47;;;26.02;37.55
24486;BME280;13449;49.374;8.584;2023-07-20T11:55:39;100135.94;;;26.07;38.21
24486;BME280;13449;49.374;8.584;2023-07-20T11:58:08;100136.66;;;26.14;38.49
24486;BME280;13449;49.374;8.584;2023-07-20T12:00:38;100150.03;;;26.57;41.19
24486;BME280;13449;49.374;8.584;2023-07-20T12:03:06;100120.19;;;26.04;34.98
24486;BME280;13449;49.374;8.584;2023-07-20T12:05:34;100120.16;;;26.40;36.09
24486;BME280;13449;49.374;8.584;2023-07-20T12:08:13;100124.22;;;26.73;36.83
24486;BME280;13449;49.374;8.584;2023-07-20T12:10:41;100126.84;;;26.91;37.91
24486;BME280;13449;49.374;8.584;2023-07-20T12:13:10;100105.38;;;27.08;34.60
24486;BME280;13449;49.374;8.584;2023-07-20T12:15:39;100105.97;;;27.10;35.15
24486;BME280;13449;49.374;8.584;2023-07-20T12:18:08;100115.16;;;27.32;36.30
24486;BME280;13449;49.374;8.584;2023-07-20T12:20:36;100117.97;;;27.49;36.93
24486;BME280;13449;49.374;8.584;2023-07-20T12:23:12;100104.59;;;27.31;36.09
24486;BME280;13449;49.374;8.584;2023-07-20T12:25:46;100098.56;;;27.29;34.82
24486;BME280;13449;49.374;8.584;2023-07-20T12:28:18;100097.06;;;27.33;36.14
24486;BME280;13449;49.374;8.584;2023-07-20T12:30:46;100083.41;;;27.28;33.32
24486;BME280;13449;49.374;8.584;2023-07-20T12:33:23;100080.66;;;26.93;33.21
24486;BME280;13449;49.374;8.584;2023-07-20T12:35:49;100078.41;;;26.78;32.83
24486;BME280;13449;49.374;8.584;2023-07-20T12:38:16;100085.63;;;26.42;33.89
24486;BME280;13449;49.374;8.584;2023-07-20T12:40:43;100085.66;;;26.66;34.51
24486;BME280;13449;49.374;8.584;2023-07-20T12:43:09;100089.31;;;27.01;35.59
24486;BME280;13449;49.374;8.584;2023-07-20T12:45:38;100096.59;;;27.36;38.27
24486;BME280;13449;49.374;8.584;2023-07-20T12:48:05;100071.97;;;26.67;34.41
24486;BME280;13449;49.374;8.584;2023-07-20T12:50:31;100093.59;;;26.37;37.49
24486;BME280;13449;49.374;8.584;2023-07-20T12:52:58;100089.53;;;26.58;37.26
24486;BME280;13449;49.374;8.584;2023-07-20T12:55:25;100090.31;;;26.47;38.02
24486;BME280;13449;49.374;8.584;2023-07-20T12:57:51;100083.13;;;26.71;38.09
24486;BME280;13449;49.374;8.584;2023-07-20T13:00:18;100084.25;;;26.63;36.49
24486;BME280;13449;49.374;8.584;2023-07-20T13:02:47;100071.31;;;25.93;35.42
24486;BME280;13449;49.374;8.584;2023-07-20T13:05:15;100079.38;;;26.12;37.41
24486;BME280;13449;49.374;8.584;2023-07-20T13:08:04;100064.72;;;25.89;37.01